createdAt,value
2022-12-04T00:00:44.014Z,4.79
2022-12-04T00:03:13.615Z,4.82
2022-12-04T00:05:43.171Z,4.58
2022-12-04T00:08:12.684Z,4.67
2022-12-04T00:10:45.001Z,4.70
2022-12-04T00:13:14.468Z,4.96
2022-12-04T00:15:47.053Z,4.65
2022-12-04T00:18:16.573Z,4.70
2022-12-04T00:20:46.081Z,4.67
2022-12-04T00:23:15.561Z,4.89
2022-12-04T00:25:48.563Z,4.71
2022-12-04T00:28:19.404Z,4.68
2022-12-04T00:30:51.672Z,4.79
2022-12-04T00:33:21.187Z,4.77
2022-12-04T00:35:50.684Z,4.55
2022-12-04T00:38:20.378Z,4.48
2022-12-04T00:40:52.493Z,4.64
2022-12-04T00:43:22.056Z,4.59
2022-12-04T00:45:54.203Z,4.59
2022-12-04T00:48:23.789Z,4.35
2022-12-04T00:50:54.245Z,4.55
2022-12-04T00:53:23.941Z,4.65
2022-12-04T00:55:53.436Z,4.65
2022-12-04T00:58:22.943Z,4.54
2022-12-04T01:01:04.421Z,4.47
2022-12-04T01:03:34.017Z,4.27
2022-12-04T01:06:03.669Z,3.94
2022-12-04T01:08:33.262Z,4.04
2022-12-04T01:11:02.937Z,4.48
2022-12-04T01:13:32.532Z,4.50
2022-12-04T01:16:04.742Z,3.99
2022-12-04T01:18:34.350Z,4.11
2022-12-04T01:21:03.971Z,4.20
2022-12-04T01:23:33.546Z,4.32
2022-12-04T01:26:03.281Z,4.32
2022-12-04T01:28:32.905Z,4.43
2022-12-04T01:31:06.409Z,4.33
2022-12-04T01:33:36.630Z,4.52
2022-12-04T01:36:07.472Z,4.30
2022-12-04T01:38:37.320Z,4.39
2022-12-04T01:41:07.451Z,4.24
2022-12-04T01:43:37.801Z,4.25
2022-12-04T01:46:10.322Z,4.48
2022-12-04T01:48:41.727Z,4.26
2022-12-04T01:51:13.281Z,4.44
2022-12-04T01:53:44.210Z,4.28
2022-12-04T01:56:13.792Z,4.21
2022-12-04T01:58:44.524Z,4.36
2022-12-04T02:01:17.077Z,4.44
2022-12-04T02:03:46.709Z,4.45
2022-12-04T02:06:16.305Z,4.52
2022-12-04T02:08:45.950Z,4.57
2022-12-04T02:11:21.539Z,4.48
2022-12-04T02:13:55.327Z,4.20
2022-12-04T02:16:28.565Z,4.37
2022-12-04T02:19:01.885Z,4.08
2022-12-04T02:21:33.087Z,4.17
2022-12-04T02:24:22.639Z,4.14
2022-12-04T02:26:53.049Z,4.38
2022-12-04T02:29:30.936Z,4.45
2022-12-04T02:32:01.810Z,4.65
2022-12-04T02:34:32.198Z,4.71
2022-12-04T02:37:03.377Z,4.70
2022-12-04T02:39:35.739Z,4.82
2022-12-04T02:42:07.290Z,4.62
2022-12-04T02:44:41.308Z,4.71
2022-12-04T02:47:13.891Z,4.60
2022-12-04T02:49:46.388Z,4.52
2022-12-04T02:52:17.010Z,4.39
2022-12-04T02:54:48.844Z,4.65
2022-12-04T02:57:21.856Z,4.74
2022-12-04T02:59:54.556Z,4.64
2022-12-04T03:02:27.560Z,4.50
2022-12-04T03:04:57.819Z,4.48
2022-12-04T03:07:29.670Z,4.51
2022-12-04T03:10:00.867Z,4.58
2022-12-04T03:12:32.342Z,4.70
2022-12-04T03:15:05.540Z,4.82
2022-12-04T03:17:37.815Z,4.69
2022-12-04T03:20:09.781Z,4.86
2022-12-04T03:22:39.899Z,4.74
2022-12-04T03:25:10.863Z,4.76
2022-12-04T03:27:43.407Z,4.90
2022-12-04T03:30:17.235Z,4.89
2022-12-04T03:32:48.542Z,4.89
2022-12-04T03:35:19.757Z,4.78
2022-12-04T03:37:51.631Z,4.43
2022-12-04T03:40:24.038Z,4.44
2022-12-04T03:42:55.888Z,4.59
2022-12-04T03:45:29.191Z,4.78
2022-12-04T03:48:01.686Z,4.89
2022-12-04T03:50:35.426Z,4.63
2022-12-04T03:53:08.479Z,4.71
2022-12-04T03:55:39.274Z,4.57
2022-12-04T03:58:10.747Z,4.76
2022-12-04T04:00:44.248Z,4.45
2022-12-04T04:03:16.116Z,4.56
2022-12-04T04:05:48.021Z,4.60
2022-12-04T04:08:30.914Z,4.67
2022-12-04T04:11:03.453Z,4.77
2022-12-04T04:13:48.786Z,4.62
2022-12-04T04:16:33.899Z,4.66
2022-12-04T04:19:15.959Z,4.66
2022-12-04T04:21:58.024Z,4.49
2022-12-04T04:24:33.206Z,4.63
2022-12-04T04:27:02.815Z,4.62
2022-12-04T04:29:32.364Z,4.42
2022-12-04T04:32:06.481Z,4.57
2022-12-04T04:34:38.189Z,4.34
2022-12-04T04:37:09.547Z,4.35
2022-12-04T04:39:41.092Z,4.46
2022-12-04T04:42:14.570Z,4.69
2022-12-04T04:44:47.279Z,4.93
2022-12-04T04:47:21.477Z,5.00
2022-12-04T04:49:51.537Z,4.88
2022-12-04T04:52:21.155Z,4.60
2022-12-04T04:54:50.812Z,4.65
2022-12-04T04:57:29.329Z,4.81
2022-12-04T04:59:58.896Z,4.53
2022-12-04T05:02:31.469Z,4.61
2022-12-04T05:05:01.142Z,4.68
2022-12-04T05:07:30.768Z,4.59
2022-12-04T05:10:00.399Z,4.46
2022-12-04T05:12:29.964Z,4.48
2022-12-04T05:14:59.530Z,4.45
2022-12-04T05:17:31.763Z,4.44
2022-12-04T05:20:01.416Z,4.51
2022-12-04T05:22:32.484Z,4.57
2022-12-04T05:25:01.749Z,4.82
2022-12-04T05:27:31.665Z,4.70
2022-12-04T05:30:01.303Z,4.52
2022-12-04T05:32:33.485Z,4.47
2022-12-04T05:35:07.679Z,4.56
2022-12-04T05:37:40.620Z,4.74
2022-12-04T05:40:11.497Z,4.30
2022-12-04T05:42:41.195Z,4.32
2022-12-04T05:45:11.344Z,4.44
2022-12-04T05:47:43.943Z,4.67
2022-12-04T05:50:14.443Z,4.74
2022-12-04T05:52:44.138Z,4.41
2022-12-04T05:55:13.613Z,4.44
2022-12-04T05:57:43.161Z,4.18
2022-12-04T06:00:14.136Z,4.38
2022-12-04T06:02:46.398Z,4.42
2022-12-04T06:05:16.450Z,4.42
2022-12-04T06:07:46.020Z,4.20
2022-12-04T06:10:15.560Z,4.23
2022-12-04T06:12:45.061Z,4.38
2022-12-04T06:15:14.661Z,4.22
2022-12-04T06:17:46.859Z,4.36
2022-12-04T06:20:17.044Z,4.38
2022-12-04T06:22:46.814Z,4.19
2022-12-04T06:25:16.452Z,4.24
2022-12-04T06:27:46.174Z,4.39
2022-12-04T06:30:16.244Z,4.24
2022-12-04T06:32:48.471Z,4.28
2022-12-04T06:35:18.316Z,4.43
2022-12-04T06:37:47.942Z,4.51
2022-12-04T06:40:17.619Z,4.47
2022-12-04T06:42:47.230Z,4.58
2022-12-04T06:45:16.907Z,4.57
2022-12-04T06:47:49.357Z,4.84
2022-12-04T06:50:19.174Z,5.08
2022-12-04T06:52:48.860Z,5.10
2022-12-04T06:55:18.632Z,5.14
2022-12-04T06:57:48.287Z,5.26
2022-12-04T07:00:19.108Z,5.28
2022-12-04T07:02:51.357Z,5.36
2022-12-04T07:05:21.018Z,5.36
2022-12-04T07:07:50.712Z,5.37
2022-12-04T07:10:20.507Z,5.40
2022-12-04T07:12:50.221Z,5.43
2022-12-04T07:15:20.066Z,5.48
2022-12-04T07:17:52.294Z,5.53
2022-12-04T07:20:22.117Z,5.57
2022-12-04T07:22:51.743Z,5.53
2022-12-04T07:25:21.517Z,5.55
2022-12-04T07:27:51.127Z,5.52
2022-12-04T07:30:20.941Z,5.55
2022-12-04T07:32:53.151Z,5.48
2022-12-04T07:35:22.787Z,5.54
2022-12-04T07:37:52.396Z,5.55
2022-12-04T07:40:22.251Z,5.54
2022-12-04T07:42:51.886Z,5.53
2022-12-04T07:45:21.558Z,5.48
2022-12-04T07:47:53.807Z,5.49
2022-12-04T07:50:23.414Z,5.34
2022-12-04T07:52:53.268Z,5.40
2022-12-04T07:55:23.457Z,5.32
2022-12-04T07:57:53.276Z,5.45
2022-12-04T08:00:23.401Z,5.52
2022-12-04T08:02:55.745Z,5.53
2022-12-04T08:05:25.372Z,5.59
2022-12-04T08:07:55.148Z,5.45
2022-12-04T08:10:24.824Z,5.38
2022-12-04T08:12:54.578Z,5.40
2022-12-04T08:15:24.291Z,5.53
2022-12-04T08:17:56.474Z,5.49
2022-12-04T08:20:26.143Z,5.37
2022-12-04T08:22:55.795Z,4.74
2022-12-04T08:25:25.540Z,4.73
2022-12-04T08:27:55.143Z,4.81
2022-12-04T08:30:24.776Z,5.17
2022-12-04T08:32:57.087Z,5.22
2022-12-04T08:35:26.739Z,5.21
2022-12-04T08:37:56.487Z,5.25
2022-12-04T08:40:26.180Z,5.25
2022-12-04T08:42:55.783Z,5.39
2022-12-04T08:45:25.381Z,5.50
2022-12-04T08:47:57.625Z,5.57
2022-12-04T08:50:27.408Z,5.74
2022-12-04T08:52:57.115Z,5.68
2022-12-04T08:55:26.758Z,5.49
2022-12-04T08:57:56.430Z,5.61
2022-12-04T09:00:27.355Z,5.43
2022-12-04T09:02:59.604Z,5.60
2022-12-04T09:05:29.392Z,5.53
2022-12-04T09:07:59.091Z,5.63
2022-12-04T09:10:28.814Z,5.46
2022-12-04T09:12:58.421Z,5.47
2022-12-04T09:15:28.149Z,5.69
2022-12-04T09:18:00.379Z,5.79
2022-12-04T09:20:30.068Z,5.84
2022-12-04T09:23:04.285Z,5.85
2022-12-04T09:25:34.536Z,5.81
2022-12-04T09:28:04.185Z,5.77
2022-12-04T09:30:33.889Z,5.87
2022-12-04T09:33:06.232Z,5.39
2022-12-04T09:35:35.900Z,5.52
2022-12-04T09:38:05.557Z,5.51
2022-12-04T09:40:38.438Z,5.72
2022-12-04T09:43:09.982Z,5.95
2022-12-04T09:45:43.981Z,6.05
2022-12-04T09:48:16.277Z,6.16
2022-12-04T09:50:46.440Z,6.02
2022-12-04T09:53:17.798Z,6.02
2022-12-04T09:55:49.056Z,6.00
2022-12-04T09:58:20.989Z,6.19
2022-12-04T10:00:52.149Z,6.14
2022-12-04T10:03:25.151Z,5.84
2022-12-04T10:05:57.710Z,5.72
2022-12-04T10:08:29.438Z,5.85
2022-12-04T10:11:04.438Z,5.97
2022-12-04T10:13:53.690Z,6.20
2022-12-04T10:16:25.532Z,6.16
2022-12-04T10:19:01.565Z,5.90
2022-12-04T10:21:42.770Z,6.07
2022-12-04T10:24:19.744Z,6.32
2022-12-04T10:26:50.172Z,6.26
2022-12-04T10:29:23.146Z,6.29
2022-12-04T10:31:52.935Z,6.22
2022-12-04T10:34:26.683Z,6.20
2022-12-04T10:36:57.209Z,5.99
2022-12-04T10:39:28.509Z,5.88
2022-12-04T10:42:01.316Z,5.98
2022-12-04T10:44:31.060Z,6.11
2022-12-04T10:47:02.393Z,6.22
2022-12-04T10:49:35.367Z,5.95
2022-12-04T10:52:05.261Z,6.11
2022-12-04T10:54:35.783Z,6.28
2022-12-04T10:57:06.543Z,6.48
2022-12-04T10:59:36.232Z,6.57
2022-12-04T11:02:07.570Z,6.55
2022-12-04T11:04:39.872Z,6.58
2022-12-04T11:07:11.790Z,6.64
2022-12-04T11:09:41.411Z,6.49
2022-12-04T11:12:12.088Z,6.52
2022-12-04T11:14:46.669Z,6.69
2022-12-04T11:17:19.359Z,6.64
2022-12-04T11:20:02.012Z,6.83
2022-12-04T11:22:31.808Z,6.73
2022-12-04T11:25:01.722Z,6.64
2022-12-04T11:27:33.464Z,6.68
2022-12-04T11:30:04.166Z,6.56
2022-12-04T11:32:34.855Z,6.51
2022-12-04T11:35:08.948Z,6.65
2022-12-04T11:37:44.957Z,6.67
2022-12-04T11:40:19.710Z,6.59
2022-12-04T11:43:03.923Z,6.61
2022-12-04T11:45:33.732Z,6.66
2022-12-04T11:48:05.508Z,6.52
2022-12-04T11:50:42.296Z,6.57
2022-12-04T11:53:18.129Z,6.64
2022-12-04T11:56:01.656Z,6.67
2022-12-04T11:58:40.230Z,6.65
2022-12-04T12:01:16.756Z,6.80
2022-12-04T12:03:48.726Z,6.80
2022-12-04T12:06:33.385Z,6.10
2022-12-04T12:09:11.812Z,6.42
2022-12-04T12:11:43.908Z,6.63
2022-12-04T12:14:17.153Z,6.91
2022-12-04T12:16:55.372Z,7.10
2022-12-04T12:19:49.348Z,7.15
2022-12-04T12:22:27.029Z,7.10
2022-12-04T12:25:00.694Z,7.12
2022-12-04T12:27:40.558Z,7.07
2022-12-04T12:30:14.514Z,7.09
2022-12-04T12:33:01.975Z,7.07
2022-12-04T12:35:33.661Z,7.11
2022-12-04T12:38:07.748Z,7.06
2022-12-04T12:40:39.232Z,7.00
2022-12-04T12:43:10.213Z,6.96
2022-12-04T12:46:22.329Z,6.95
2022-12-04T12:49:18.547Z,6.99
2022-12-04T12:51:51.998Z,7.05
2022-12-04T12:54:31.254Z,7.04
2022-12-04T13:00:27.491Z,7.01
2022-12-04T13:03:00.885Z,7.05
2022-12-04T13:05:32.528Z,7.03
2022-12-04T13:08:06.158Z,7.08
2022-12-04T13:10:40.465Z,7.14
2022-12-04T13:13:12.800Z,7.00
2022-12-04T13:15:44.773Z,7.02
2022-12-04T13:18:18.066Z,7.06
2022-12-04T13:20:51.205Z,7.03
2022-12-04T13:23:26.397Z,6.97
2022-12-04T13:26:01.118Z,6.95
2022-12-04T13:28:38.065Z,6.99
2022-12-04T13:31:13.277Z,6.90
2022-12-04T13:34:02.837Z,6.99
2022-12-04T13:36:38.468Z,6.92
2022-12-04T13:39:46.342Z,7.02
2022-12-04T13:42:24.547Z,7.04
2022-12-04T13:44:58.278Z,7.10
2022-12-04T13:47:29.494Z,7.06
2022-12-04T13:50:10.039Z,7.06
2022-12-04T13:52:41.146Z,7.05
2022-12-04T13:55:25.025Z,7.09
2022-12-04T13:58:05.556Z,7.06
2022-12-04T14:01:02.722Z,6.98
2022-12-04T14:03:40.422Z,6.99
2022-12-04T14:06:31.807Z,6.97
2022-12-04T14:09:02.280Z,7.02
2022-12-04T14:11:32.021Z,6.96
2022-12-04T14:14:47.158Z,6.86
2022-12-04T14:17:34.115Z,6.82
2022-12-04T14:20:08.089Z,6.69
2022-12-04T14:22:45.573Z,6.53
2022-12-04T14:25:36.393Z,6.38
2022-12-04T14:28:16.639Z,6.40
2022-12-04T14:30:46.381Z,6.44
2022-12-04T14:33:22.147Z,6.53
2022-12-04T14:35:57.076Z,6.55
2022-12-04T14:38:26.764Z,6.53
2022-12-04T14:40:58.236Z,6.50
2022-12-04T14:43:29.166Z,6.54
2022-12-04T14:46:25.933Z,6.54
2022-12-04T14:52:28.353Z,6.49
2022-12-04T14:55:06.072Z,6.50
2022-12-04T14:57:56.231Z,6.57
2022-12-04T15:00:34.865Z,6.57
2022-12-04T15:07:00.424Z,6.58
2022-12-04T15:43:47.821Z,6.71
2022-12-04T16:00:31.360Z,6.65
2022-12-04T16:03:01.450Z,6.55
2022-12-04T16:05:38.945Z,6.48
2022-12-04T16:08:25.545Z,6.51
2022-12-04T16:11:02.442Z,6.47
2022-12-04T16:13:37.240Z,6.45
2022-12-04T16:16:18.415Z,6.39
2022-12-04T16:18:49.998Z,6.42
2022-12-04T16:21:21.635Z,6.37
2022-12-04T16:23:51.763Z,6.40
2022-12-04T16:26:23.101Z,6.40
2022-12-04T16:28:52.839Z,6.42
2022-12-04T16:31:25.579Z,6.33
2022-12-04T16:33:58.067Z,6.22
2022-12-04T16:40:13.769Z,6.21
2022-12-04T16:42:43.023Z,6.25
2022-12-04T16:45:23.315Z,6.28
2022-12-04T16:47:55.497Z,6.20
2022-12-04T16:50:24.965Z,6.25
2022-12-04T16:52:54.575Z,6.20
2022-12-04T16:55:25.747Z,6.16
2022-12-04T16:57:55.205Z,6.16
2022-12-04T17:00:24.771Z,6.19
2022-12-04T17:02:56.904Z,6.09
2022-12-04T17:05:28.399Z,6.06
2022-12-04T17:07:58.082Z,5.98
2022-12-04T17:10:27.732Z,5.92
2022-12-04T17:12:57.430Z,5.92
2022-12-04T17:15:26.938Z,5.97
2022-12-04T17:17:59.024Z,6.03
2022-12-04T17:20:28.750Z,6.03
2022-12-04T17:22:58.252Z,5.98
2022-12-04T17:25:27.767Z,5.99
2022-12-04T17:27:57.223Z,5.93
2022-12-04T17:30:30.194Z,5.84
2022-12-04T17:33:04.896Z,5.71
2022-12-04T17:35:34.493Z,5.62
2022-12-04T17:38:06.252Z,5.64
2022-12-04T17:40:36.053Z,5.62
2022-12-04T17:43:05.563Z,5.64
2022-12-04T17:45:35.051Z,5.61
2022-12-04T17:48:07.668Z,5.46
2022-12-04T17:50:37.202Z,5.39
2022-12-04T17:53:06.710Z,5.34
2022-12-04T17:55:36.901Z,5.34
2022-12-04T17:58:06.423Z,5.37
2022-12-04T18:00:36.029Z,5.36
2022-12-04T18:03:08.188Z,5.39
2022-12-04T18:05:37.735Z,5.37
2022-12-04T18:08:07.382Z,5.18
2022-12-04T18:10:38.324Z,5.19
2022-12-04T18:13:07.801Z,5.17
2022-12-04T18:15:37.471Z,5.28
2022-12-04T18:18:09.552Z,5.14
2022-12-04T18:20:39.083Z,5.16
2022-12-04T18:23:09.059Z,5.16
2022-12-04T18:25:38.559Z,5.23
2022-12-04T18:28:08.128Z,5.26
2022-12-04T18:30:39.743Z,5.27
2022-12-04T18:33:14.853Z,5.20
2022-12-04T18:35:56.072Z,5.20
2022-12-04T18:38:25.859Z,5.14
2022-12-04T18:40:55.361Z,5.08
2022-12-04T18:43:24.915Z,5.01
2022-12-04T18:46:04.168Z,4.97
2022-12-04T18:48:39.542Z,5.00
2022-12-04T18:51:17.386Z,5.13
2022-12-04T18:53:46.947Z,5.22
2022-12-04T18:56:17.413Z,5.31
2022-12-04T18:58:47.054Z,5.24
2022-12-04T19:01:18.457Z,5.24
2022-12-04T19:03:50.657Z,5.30
2022-12-04T19:06:20.288Z,5.25
2022-12-04T19:08:50.043Z,5.28
2022-12-04T19:11:19.535Z,5.22
2022-12-04T19:13:49.020Z,5.22
2022-12-04T19:16:19.216Z,5.37
2022-12-04T19:18:51.433Z,5.35
2022-12-04T19:21:21.041Z,5.34
2022-12-04T19:23:53.164Z,5.40
2022-12-04T19:26:23.097Z,5.35
2022-12-04T19:28:53.759Z,5.36
2022-12-04T19:31:24.479Z,5.44
2022-12-04T19:33:56.763Z,5.53
2022-12-04T19:36:26.681Z,5.55
2022-12-04T19:38:56.242Z,5.58
2022-12-04T19:41:27.030Z,5.68
2022-12-04T19:43:58.375Z,5.72
2022-12-04T19:46:29.251Z,5.66
2022-12-04T19:49:03.862Z,5.67
2022-12-04T19:51:34.727Z,5.66
2022-12-04T19:54:04.495Z,5.68
2022-12-04T19:56:35.192Z,5.72
2022-12-04T19:59:06.047Z,5.74
2022-12-04T20:01:35.973Z,5.85
2022-12-04T20:04:10.842Z,5.92
2022-12-04T20:06:41.395Z,5.94
2022-12-04T20:09:12.139Z,5.93
2022-12-04T20:11:41.729Z,5.93
2022-12-04T20:14:11.354Z,5.94
2022-12-04T20:16:41.393Z,5.96
2022-12-04T20:19:16.804Z,5.96
2022-12-04T20:21:46.448Z,5.99
2022-12-04T20:24:16.876Z,5.98
2022-12-04T20:26:47.866Z,6.00
2022-12-04T20:29:19.161Z,6.03
2022-12-04T20:31:48.898Z,6.02
2022-12-04T20:34:21.618Z,6.05
2022-12-04T20:36:51.274Z,6.07
2022-12-04T20:39:21.892Z,6.09
2022-12-04T20:41:54.355Z,6.08
2022-12-04T20:44:23.861Z,6.03
2022-12-04T20:46:53.512Z,5.97
2022-12-04T20:49:25.636Z,5.96
2022-12-04T20:51:55.116Z,5.69
2022-12-04T20:54:25.672Z,5.27
2022-12-04T20:56:56.417Z,5.35
2022-12-04T20:59:26.405Z,4.98
2022-12-04T21:01:55.958Z,5.10
2022-12-04T21:04:28.124Z,5.10
2022-12-04T21:06:57.716Z,4.70
2022-12-04T21:09:28.907Z,4.79
2022-12-04T21:11:58.685Z,5.01
2022-12-04T21:14:41.630Z,5.25
2022-12-04T21:17:16.551Z,5.45
2022-12-04T21:19:49.044Z,5.65
2022-12-04T21:22:19.026Z,5.84
2022-12-04T21:24:48.504Z,5.95
2022-12-04T21:27:21.242Z,6.04
2022-12-04T21:29:51.099Z,6.09
2022-12-04T21:32:21.809Z,6.08
2022-12-04T21:34:54.274Z,6.09
2022-12-04T21:37:23.808Z,6.13
2022-12-04T21:39:53.349Z,6.13
2022-12-04T21:42:35.481Z,6.04
2022-12-04T21:45:06.162Z,5.93
2022-12-04T21:47:35.825Z,5.93
2022-12-04T21:50:09.352Z,5.89
2022-12-04T21:52:38.890Z,5.80
2022-12-04T21:55:09.028Z,5.76
2022-12-04T21:57:38.680Z,5.82
2022-12-04T22:00:09.819Z,5.81
2022-12-04T22:02:40.057Z,5.80
2022-12-04T22:05:12.291Z,5.92
2022-12-04T22:07:41.828Z,5.87
2022-12-04T22:10:12.203Z,5.85
2022-12-04T22:12:50.689Z,5.88
2022-12-04T22:15:20.606Z,5.76
2022-12-04T22:17:50.066Z,5.58
2022-12-04T22:20:23.547Z,5.64
2022-12-04T22:22:53.024Z,5.73
2022-12-04T22:25:22.508Z,5.78
2022-12-04T22:27:51.998Z,5.78
2022-12-04T22:30:21.839Z,5.82
2022-12-04T22:32:51.355Z,5.65
2022-12-04T22:35:23.463Z,5.41
2022-12-04T22:37:52.951Z,5.05
2022-12-04T22:40:22.470Z,5.01
2022-12-04T22:42:51.938Z,4.85
2022-12-04T22:45:21.548Z,4.70
2022-12-04T22:47:51.047Z,4.94
2022-12-04T22:50:23.263Z,5.16
2022-12-04T22:52:52.735Z,5.16
2022-12-04T22:55:22.360Z,4.98
2022-12-04T22:57:51.873Z,4.88
2022-12-04T23:00:21.642Z,4.64
2022-12-04T23:02:51.256Z,4.34
2022-12-04T23:05:23.452Z,4.46
2022-12-04T23:07:53.224Z,4.46
2022-12-04T23:10:22.806Z,4.62
2022-12-04T23:12:52.272Z,4.70
2022-12-04T23:15:22.269Z,4.78
2022-12-04T23:17:51.777Z,4.83
2022-12-04T23:20:23.873Z,4.86
2022-12-04T23:22:55.742Z,4.92
2022-12-04T23:25:25.248Z,4.94
2022-12-04T23:27:54.792Z,4.90
2022-12-04T23:30:28.388Z,4.84
2022-12-04T23:32:59.019Z,4.60
2022-12-04T23:35:31.101Z,4.50
2022-12-04T23:38:00.590Z,4.56
2022-12-04T23:40:30.072Z,4.63
2022-12-04T23:42:59.572Z,4.74
2022-12-04T23:45:29.122Z,4.80
2022-12-04T23:47:58.574Z,4.85
2022-12-04T23:50:28.089Z,4.91
2022-12-04T23:53:00.386Z,5.02
2022-12-04T23:55:34.056Z,5.10
2022-12-04T23:58:04.616Z,5.18
